Terminal Aerodrome Forecast
Issued by NWS

Home | Current Version | Previous Version | Text Only | Print | Product List | Glossary On
Versions: 1 2 3 4 5 6 7 8 9 10 11 12 13 14 15 16
000
FTUS46 KPDT 021140
TAFDLS
TAF
KDLS 021140Z 0212/0312 30006KT P6SM FEW150 SCT200
     FM021500 31008KT P6SM SCT150 BKN250
     FM022000 33015G23KT P6SM VCTS SCT100CB BKN200
     FM030500 31007KT P6SM SCT120 BKN250=

USA.gov is the U.S. government's official web portal to all federal, state and local government web resources and services.